createdAt,value
2018-08-12T00:00:08.715Z,1013.60
2018-08-12T00:01:08.775Z,1013.59
2018-08-12T00:02:08.700Z,1013.60
2018-08-12T00:03:08.817Z,1013.56
2018-08-12T00:04:08.666Z,1013.51
2018-08-12T00:05:08.657Z,1013.50
2018-08-12T00:06:08.648Z,1013.51
2018-08-12T00:07:08.659Z,1013.51
2018-08-12T00:08:08.626Z,1013.54
2018-08-12T00:09:08.635Z,1013.52
2018-08-12T00:10:08.613Z,1013.50
2018-08-12T00:11:08.651Z,1013.54
2018-08-12T00:12:08.597Z,1013.52
2018-08-12T00:13:08.576Z,1013.52
2018-08-12T00:14:08.576Z,1013.52
2018-08-12T00:15:08.604Z,1013.52
2018-08-12T00:16:08.536Z,1013.48
2018-08-12T00:17:08.541Z,1013.47
2018-08-12T00:18:08.640Z,1013.44
2018-08-12T00:19:08.504Z,1013.47
2018-08-12T00:20:08.588Z,1013.47
2018-08-12T00:21:08.487Z,1013.52
2018-08-12T00:22:08.488Z,1013.48
2018-08-12T00:23:08.588Z,1013.50
2018-08-12T00:24:08.450Z,1013.47
2018-08-12T00:25:08.456Z,1013.44
2018-08-12T00:26:08.435Z,1013.46
2018-08-12T00:27:08.433Z,1013.45
2018-08-12T00:28:08.424Z,1013.46
2018-08-12T00:29:08.442Z,1013.44
2018-08-12T00:30:08.404Z,1013.42
2018-08-12T00:31:08.378Z,1013.42
2018-08-12T00:32:08.560Z,1013.40
2018-08-12T00:33:08.361Z,1013.42
2018-08-12T00:34:08.357Z,1013.44
2018-08-12T00:35:08.334Z,1013.42
2018-08-12T00:36:08.325Z,1013.46
2018-08-12T00:37:08.408Z,1013.42
2018-08-12T00:38:08.313Z,1013.43
2018-08-12T00:39:08.296Z,1013.44
2018-08-12T00:40:08.423Z,1013.37
2018-08-12T00:41:08.284Z,1013.40
2018-08-12T00:42:08.280Z,1013.36
2018-08-12T00:43:08.264Z,1013.31
2018-08-12T00:44:08.279Z,1013.29
2018-08-12T00:45:08.244Z,1013.28
2018-08-12T00:46:08.219Z,1013.28
2018-08-12T00:47:08.222Z,1013.28
2018-08-12T00:48:08.219Z,1013.23
2018-08-12T00:49:08.198Z,1013.26
2018-08-12T00:50:08.189Z,1013.25
2018-08-12T00:51:08.168Z,1013.23
2018-08-12T00:52:08.187Z,1013.22
2018-08-12T00:53:08.149Z,1013.22
2018-08-12T00:54:08.144Z,1013.18
2018-08-12T00:55:08.144Z,1013.16
2018-08-12T00:56:08.132Z,1013.13
2018-08-12T00:57:08.108Z,1013.18
2018-08-12T00:58:08.183Z,1013.20
2018-08-12T00:59:08.082Z,1013.19
2018-08-12T01:00:08.096Z,1013.17
2018-08-12T01:01:08.072Z,1013.19
2018-08-12T01:02:08.070Z,1013.17
2018-08-12T01:03:08.053Z,1013.14
2018-08-12T01:04:08.049Z,1013.13
2018-08-12T01:05:08.078Z,1013.13
2018-08-12T01:06:08.075Z,1013.14
2018-08-12T01:07:07.998Z,1013.13
2018-08-12T01:08:08.005Z,1013.06
2018-08-12T01:09:07.982Z,1013.09
2018-08-12T01:10:07.974Z,1013.09
2018-08-12T01:11:08.019Z,1013.08
2018-08-12T01:12:07.957Z,1013.09
2018-08-12T01:13:07.966Z,1013.04
2018-08-12T01:14:08.022Z,1013.07
2018-08-12T01:15:07.935Z,1013.00
2018-08-12T01:16:07.903Z,1013.03
2018-08-12T01:17:07.895Z,1013.00
2018-08-12T01:18:07.890Z,1012.99
2018-08-12T01:19:07.886Z,1013.01
2018-08-12T01:20:07.972Z,1013.01
2018-08-12T01:21:07.982Z,1012.98
2018-08-12T01:22:07.858Z,1012.98
2018-08-12T01:23:07.845Z,1013.00
2018-08-12T01:24:07.923Z,1012.99
2018-08-12T01:25:07.813Z,1012.97
2018-08-12T01:26:07.792Z,1012.96
2018-08-12T01:27:07.797Z,1012.99
2018-08-12T01:28:07.875Z,1012.97
2018-08-12T01:29:07.787Z,1012.95
2018-08-12T01:30:10.559Z,1012.98
2018-08-12T01:31:07.742Z,1012.93
2018-08-12T01:32:07.732Z,1012.98
2018-08-12T01:33:07.736Z,1012.96
2018-08-12T01:34:07.711Z,1012.95
2018-08-12T01:35:07.703Z,1012.93
2018-08-12T01:36:07.703Z,1012.98
2018-08-12T01:37:07.677Z,1012.98
2018-08-12T01:38:07.686Z,1012.96
2018-08-12T01:39:07.741Z,1012.97
2018-08-12T01:40:07.648Z,1012.97
2018-08-12T01:41:07.635Z,1012.96
2018-08-12T01:42:07.643Z,1012.96
2018-08-12T01:43:07.627Z,1012.94
2018-08-12T01:44:07.627Z,1012.94
2018-08-12T01:45:07.595Z,1012.94
2018-08-12T01:46:07.610Z,1012.92
2018-08-12T01:47:07.572Z,1012.91
2018-08-12T01:48:07.572Z,1012.90
2018-08-12T01:49:07.576Z,1012.85
2018-08-12T01:50:07.546Z,1012.86
2018-08-12T01:51:07.535Z,1012.87
2018-08-12T01:52:07.520Z,1012.85
2018-08-12T01:53:07.540Z,1012.88
2018-08-12T01:54:07.512Z,1012.88
2018-08-12T01:55:07.498Z,1012.89
2018-08-12T01:56:07.488Z,1012.88
2018-08-12T01:57:07.481Z,1012.83
2018-08-12T01:58:07.542Z,1012.83
2018-08-12T01:59:07.459Z,1012.86
2018-08-12T02:00:07.439Z,1012.82
2018-08-12T02:01:07.420Z,1012.83
2018-08-12T02:02:07.410Z,1012.83
2018-08-12T02:03:07.426Z,1012.87
2018-08-12T02:04:07.389Z,1012.88
2018-08-12T02:05:07.400Z,1012.85
2018-08-12T02:06:07.383Z,1012.85
2018-08-12T02:07:07.358Z,1012.83
2018-08-12T02:08:07.421Z,1012.80
2018-08-12T02:09:07.467Z,1012.85
2018-08-12T02:10:07.398Z,1012.84
2018-08-12T02:11:07.317Z,1012.82
2018-08-12T02:12:07.425Z,1012.79
2018-08-12T02:13:07.320Z,1012.77
2018-08-12T02:14:07.298Z,1012.79
2018-08-12T02:15:07.320Z,1012.77
2018-08-12T02:16:07.271Z,1012.75
2018-08-12T02:17:07.391Z,1012.77
2018-08-12T02:18:07.253Z,1012.73
2018-08-12T02:19:07.247Z,1012.72
2018-08-12T02:20:07.242Z,1012.73
2018-08-12T02:21:07.295Z,1012.70
2018-08-12T02:22:07.211Z,1012.72
2018-08-12T02:23:07.220Z,1012.68
2018-08-12T02:24:07.228Z,1012.67
2018-08-12T02:25:07.166Z,1012.70
2018-08-12T02:26:07.181Z,1012.64
2018-08-12T02:27:07.142Z,1012.64
2018-08-12T02:28:07.152Z,1012.62
2018-08-12T02:29:07.134Z,1012.61
2018-08-12T02:30:07.125Z,1012.62
2018-08-12T02:31:07.109Z,1012.59
2018-08-12T02:32:07.157Z,1012.62
2018-08-12T02:33:07.093Z,1012.61
2018-08-12T02:34:07.086Z,1012.61
2018-08-12T02:35:07.057Z,1012.56
2018-08-12T02:36:07.061Z,1012.55
2018-08-12T02:37:07.131Z,1012.53
2018-08-12T02:38:07.034Z,1012.49
2018-08-12T02:39:07.039Z,1012.52
2018-08-12T02:40:07.035Z,1012.56
2018-08-12T02:41:07.001Z,1012.57
2018-08-12T02:42:06.990Z,1012.53
2018-08-12T02:43:07.098Z,1012.53
2018-08-12T02:44:07.076Z,1012.51
2018-08-12T02:45:06.958Z,1012.50
2018-08-12T02:46:06.957Z,1012.50
2018-08-12T02:47:06.946Z,1012.43
2018-08-12T02:48:06.954Z,1012.42
2018-08-12T02:49:06.928Z,1012.41
2018-08-12T02:50:06.902Z,1012.37
2018-08-12T02:51:06.893Z,1012.35
2018-08-12T02:52:06.880Z,1012.40
2018-08-12T02:53:06.878Z,1012.36
2018-08-12T02:54:06.873Z,1012.36
2018-08-12T02:55:06.862Z,1012.30
2018-08-12T02:56:06.834Z,1012.29
2018-08-12T02:57:06.842Z,1012.30
2018-08-12T02:58:06.824Z,1012.27
2018-08-12T02:59:06.816Z,1012.27
2018-08-12T03:00:06.799Z,1012.24
2018-08-12T03:01:06.794Z,1012.22
2018-08-12T03:02:06.776Z,1012.21
2018-08-12T03:03:06.778Z,1012.22
2018-08-12T03:04:06.772Z,1012.18
2018-08-12T03:05:08.186Z,1012.20
2018-08-12T03:06:06.757Z,1012.13
2018-08-12T03:07:06.735Z,1012.19
2018-08-12T03:08:06.738Z,1012.11
2018-08-12T03:09:06.715Z,1012.09
2018-08-12T03:10:06.780Z,1012.08
2018-08-12T03:11:06.686Z,1012.04
2018-08-12T03:12:06.668Z,1012.04
2018-08-12T03:13:06.730Z,1012.01
2018-08-12T03:14:06.669Z,1012.03
2018-08-12T03:15:06.640Z,1011.99
2018-08-12T03:16:06.731Z,1011.89
2018-08-12T03:17:06.626Z,1011.94
2018-08-12T03:18:06.603Z,1011.92
2018-08-12T03:19:06.649Z,1011.92
2018-08-12T03:20:06.579Z,1011.91
2018-08-12T03:21:06.599Z,1011.91
2018-08-12T03:22:06.675Z,1011.90
2018-08-12T03:23:06.588Z,1011.91
2018-08-12T03:24:06.539Z,1011.88
2018-08-12T03:25:06.554Z,1011.89
2018-08-12T03:26:06.534Z,1011.90
2018-08-12T03:27:06.565Z,1011.93
2018-08-12T03:28:06.512Z,1011.91
2018-08-12T03:29:06.491Z,1011.91
2018-08-12T03:30:06.631Z,1011.87
2018-08-12T03:31:06.503Z,1011.89
2018-08-12T03:32:06.451Z,1011.89
2018-08-12T03:33:06.450Z,1011.85
2018-08-12T03:34:06.431Z,1011.87
2018-08-12T03:35:06.437Z,1011.85
2018-08-12T03:36:06.421Z,1011.86
2018-08-12T03:37:06.424Z,1011.80
2018-08-12T03:38:06.388Z,1011.88
2018-08-12T03:39:06.379Z,1011.87
2018-08-12T03:40:06.396Z,1011.84
2018-08-12T03:41:06.357Z,1011.83
2018-08-12T03:42:06.520Z,1011.82
2018-08-12T03:43:06.356Z,1011.83
2018-08-12T03:44:06.336Z,1011.83
2018-08-12T03:45:06.335Z,1011.80
2018-08-12T03:46:06.304Z,1011.81
2018-08-12T03:47:06.312Z,1011.80
2018-08-12T03:48:06.311Z,1011.80
2018-08-12T03:49:06.291Z,1011.78
2018-08-12T03:50:06.419Z,1011.73
2018-08-12T03:51:06.265Z,1011.75
2018-08-12T03:52:06.261Z,1011.73
2018-08-12T03:53:06.239Z,1011.73
2018-08-12T03:54:06.348Z,1011.72
2018-08-12T03:55:06.226Z,1011.72
2018-08-12T03:56:06.218Z,1011.74
2018-08-12T03:57:06.210Z,1011.75
2018-08-12T03:58:06.214Z,1011.71
2018-08-12T03:59:06.187Z,1011.68
2018-08-12T04:00:06.483Z,1011.68
2018-08-12T04:01:06.149Z,1011.67
2018-08-12T04:02:06.144Z,1011.63
2018-08-12T04:03:06.190Z,1011.64
2018-08-12T04:04:06.132Z,1011.64
2018-08-12T04:05:06.097Z,1011.63
2018-08-12T04:06:06.121Z,1011.58
2018-08-12T04:07:06.084Z,1011.61
2018-08-12T04:08:06.075Z,1011.60
2018-08-12T04:09:06.088Z,1011.63
2018-08-12T04:10:06.047Z,1011.60
2018-08-12T04:11:06.051Z,1011.62
2018-08-12T04:12:06.105Z,1011.63
2018-08-12T04:13:06.082Z,1011.60
2018-08-12T04:14:06.016Z,1011.59
2018-08-12T04:15:06.030Z,1011.63
2018-08-12T04:16:05.998Z,1011.59
2018-08-12T04:17:05.979Z,1011.56
2018-08-12T04:18:06.111Z,1011.64
2018-08-12T04:19:06.029Z,1011.58
2018-08-12T04:20:05.993Z,1011.59
2018-08-12T04:21:05.970Z,1011.57
2018-08-12T04:22:05.925Z,1011.59
2018-08-12T04:23:05.915Z,1011.57
2018-08-12T04:24:05.899Z,1011.58
2018-08-12T04:25:05.927Z,1011.54
2018-08-12T04:26:05.892Z,1011.57
2018-08-12T04:27:05.896Z,1011.56
2018-08-12T04:28:05.858Z,1011.57
2018-08-12T04:29:05.852Z,1011.54
2018-08-12T04:30:06.818Z,1011.56
2018-08-12T04:31:05.842Z,1011.55
2018-08-12T04:32:05.818Z,1011.55
2018-08-12T04:33:05.811Z,1011.49
2018-08-12T04:34:05.792Z,1011.52
2018-08-12T04:35:05.779Z,1011.49
2018-08-12T04:36:05.784Z,1011.51
2018-08-12T04:37:05.898Z,1011.51
2018-08-12T04:38:05.758Z,1011.48
2018-08-12T04:39:05.741Z,1011.50
2018-08-12T04:40:05.731Z,1011.50
2018-08-12T04:41:05.808Z,1011.52
2018-08-12T04:42:05.717Z,1011.54
2018-08-12T04:43:05.704Z,1011.62
2018-08-12T04:44:05.692Z,1011.62
2018-08-12T04:45:05.787Z,1011.57
2018-08-12T04:46:05.758Z,1011.55
2018-08-12T04:47:05.672Z,1011.53
2018-08-12T04:48:05.646Z,1011.52
2018-08-12T04:49:05.629Z,1011.54
2018-08-12T04:50:05.618Z,1011.56
2018-08-12T04:51:06.083Z,1011.57
2018-08-12T04:52:05.740Z,1011.62
2018-08-12T04:53:05.598Z,1011.58
2018-08-12T04:54:05.599Z,1011.56
2018-08-12T04:55:05.680Z,1011.59
2018-08-12T04:56:05.568Z,1011.58
2018-08-12T04:57:05.560Z,1011.60
2018-08-12T04:58:05.536Z,1011.60
2018-08-12T04:59:05.533Z,1011.62
2018-08-12T05:00:05.515Z,1011.63
2018-08-12T05:01:05.554Z,1011.60
2018-08-12T05:02:05.505Z,1011.60
2018-08-12T05:03:05.481Z,1011.57
2018-08-12T05:04:05.476Z,1011.58
2018-08-12T05:05:05.476Z,1011.57
2018-08-12T05:06:05.564Z,1011.54
2018-08-12T05:07:05.458Z,1011.52
2018-08-12T05:08:06.661Z,1011.51
2018-08-12T05:09:05.904Z,1011.50
2018-08-12T05:10:05.405Z,1011.51
2018-08-12T05:11:05.442Z,1011.48
2018-08-12T05:12:05.449Z,1011.46
2018-08-12T05:13:05.400Z,1011.45
2018-08-12T05:14:05.389Z,1011.45
2018-08-12T05:15:05.356Z,1011.46
2018-08-12T05:16:05.374Z,1011.49
2018-08-12T05:17:05.344Z,1011.49
2018-08-12T05:18:05.446Z,1011.52
2018-08-12T05:19:05.378Z,1011.49
2018-08-12T05:20:05.315Z,1011.47
2018-08-12T05:21:05.387Z,1011.50
2018-08-12T05:22:05.290Z,1011.50
2018-08-12T05:23:05.272Z,1011.46
2018-08-12T05:24:05.286Z,1011.45
2018-08-12T05:25:05.244Z,1011.40
2018-08-12T05:26:05.287Z,1011.45
2018-08-12T05:27:05.236Z,1011.43
2018-08-12T05:28:05.236Z,1011.37
2018-08-12T05:29:05.223Z,1011.34
2018-08-12T05:30:05.220Z,1011.30
2018-08-12T05:31:05.214Z,1011.30
2018-08-12T05:32:05.189Z,1011.29
2018-08-12T05:33:05.159Z,1011.26
2018-08-12T05:34:05.148Z,1011.25
2018-08-12T05:35:05.153Z,1011.29
2018-08-12T05:36:05.283Z,1011.26
2018-08-12T05:37:05.157Z,1011.28
2018-08-12T05:38:05.122Z,1011.24
2018-08-12T05:39:05.101Z,1011.24
2018-08-12T05:40:05.195Z,1011.27
2018-08-12T05:41:05.183Z,1011.28
2018-08-12T05:42:05.070Z,1011.25
2018-08-12T05:43:05.058Z,1011.21
2018-08-12T05:44:05.041Z,1011.21
2018-08-12T05:45:05.036Z,1011.22
2018-08-12T05:46:05.025Z,1011.21
2018-08-12T05:47:05.026Z,1011.22
2018-08-12T05:48:05.117Z,1011.23
2018-08-12T05:49:05.016Z,1011.25
2018-08-12T05:50:04.994Z,1011.27
2018-08-12T05:51:05.062Z,1011.26
2018-08-12T05:52:04.970Z,1011.25
2018-08-12T05:53:05.074Z,1011.24
2018-08-12T05:54:04.946Z,1011.22
2018-08-12T05:55:04.937Z,1011.23
2018-08-12T05:56:04.920Z,1011.16
2018-08-12T05:57:04.948Z,1011.17
2018-08-12T05:58:04.895Z,1011.22
2018-08-12T05:59:04.881Z,1011.21
2018-08-12T06:00:04.902Z,1011.19
2018-08-12T06:01:04.871Z,1011.23
2018-08-12T06:02:04.871Z,1011.21
2018-08-12T06:03:04.871Z,1011.21
2018-08-12T06:04:04.828Z,1011.23
2018-08-12T06:05:04.814Z,1011.21
2018-08-12T06:06:04.813Z,1011.22
2018-08-12T06:07:04.821Z,1011.27
2018-08-12T06:08:04.801Z,1011.24
2018-08-12T06:09:04.814Z,1011.20
2018-08-12T06:10:04.769Z,1011.23
2018-08-12T06:11:04.762Z,1011.27
2018-08-12T06:12:04.759Z,1011.23
2018-08-12T06:13:04.772Z,1011.24
2018-08-12T06:14:04.792Z,1011.24
2018-08-12T06:15:04.719Z,1011.21
2018-08-12T06:16:04.702Z,1011.21
2018-08-12T06:17:04.742Z,1011.21
2018-08-12T06:18:04.812Z,1011.22
2018-08-12T06:19:04.669Z,1011.21
2018-08-12T06:20:04.675Z,1011.21
2018-08-12T06:21:04.677Z,1011.19
2018-08-12T06:22:04.654Z,1011.20
2018-08-12T06:23:04.666Z,1011.18
2018-08-12T06:24:04.735Z,1011.15
2018-08-12T06:25:04.610Z,1011.09
2018-08-12T06:26:04.608Z,1011.08
2018-08-12T06:27:04.595Z,1011.05
2018-08-12T06:28:04.573Z,1011.10
2018-08-12T06:29:04.603Z,1011.08
2018-08-12T06:30:04.550Z,1011.10
2018-08-12T06:31:04.559Z,1011.05
2018-08-12T06:32:04.567Z,1011.10
2018-08-12T06:33:04.530Z,1011.08
2018-08-12T06:34:04.555Z,1011.05
2018-08-12T06:35:04.661Z,1011.04
2018-08-12T06:36:04.623Z,1011.06
2018-08-12T06:37:04.585Z,1011.05
2018-08-12T06:38:04.479Z,1011.04
2018-08-12T06:39:04.480Z,1011.02
2018-08-12T06:40:04.457Z,1011.05
2018-08-12T06:41:04.440Z,1011.03
2018-08-12T06:42:04.444Z,1011.00
2018-08-12T06:43:04.427Z,1011.02
2018-08-12T06:44:04.494Z,1011.00
2018-08-12T06:45:04.394Z,1010.99
2018-08-12T06:46:04.387Z,1010.97
2018-08-12T06:47:04.388Z,1010.97
2018-08-12T06:48:04.363Z,1010.99
2018-08-12T06:49:04.380Z,1010.99
2018-08-12T06:50:04.457Z,1010.97
2018-08-12T06:51:05.459Z,1010.96
2018-08-12T06:52:04.480Z,1010.93
2018-08-12T06:53:04.309Z,1010.93
2018-08-12T06:54:04.299Z,1010.93
2018-08-12T06:55:04.356Z,1010.90
2018-08-12T06:56:04.393Z,1010.90
2018-08-12T06:57:04.277Z,1010.92
2018-08-12T06:58:04.284Z,1010.89
2018-08-12T06:59:04.264Z,1010.86
2018-08-12T07:00:04.282Z,1010.87
2018-08-12T07:01:04.318Z,1010.86
2018-08-12T07:02:04.230Z,1010.85
2018-08-12T07:03:04.199Z,1010.90
2018-08-12T07:04:04.189Z,1010.85
2018-08-12T07:05:04.196Z,1010.83
2018-08-12T07:06:04.183Z,1010.84
2018-08-12T07:07:04.181Z,1010.86
2018-08-12T07:08:04.161Z,1010.83
2018-08-12T07:09:04.140Z,1010.83
2018-08-12T07:10:04.149Z,1010.88
2018-08-12T07:11:04.127Z,1010.86
2018-08-12T07:12:04.106Z,1010.86
2018-08-12T07:13:04.098Z,1010.84
2018-08-12T07:14:04.089Z,1010.81
2018-08-12T07:15:04.187Z,1010.88
2018-08-12T07:16:04.955Z,1010.80
2018-08-12T07:17:04.294Z,1010.81
2018-08-12T07:18:04.328Z,1010.81
2018-08-12T07:19:04.039Z,1010.79
2018-08-12T07:20:04.073Z,1010.76
2018-08-12T07:21:04.011Z,1010.78
2018-08-12T07:22:04.114Z,1010.78
2018-08-12T07:23:04.025Z,1010.80
2018-08-12T07:24:04.120Z,1010.81
2018-08-12T07:25:04.078Z,1010.75
2018-08-12T07:26:03.975Z,1010.77
2018-08-12T07:27:04.036Z,1010.80
2018-08-12T07:28:03.966Z,1010.76
2018-08-12T07:29:03.953Z,1010.73
2018-08-12T07:30:03.929Z,1010.79
2018-08-12T07:31:04.004Z,1010.69
2018-08-12T07:32:03.890Z,1010.71
2018-08-12T07:33:03.890Z,1010.66
2018-08-12T07:34:04.034Z,1010.67
2018-08-12T07:35:03.860Z,1010.61
2018-08-12T07:36:03.953Z,1010.62
2018-08-12T07:37:03.845Z,1010.61
2018-08-12T07:38:03.970Z,1010.57
2018-08-12T07:39:03.931Z,1010.56
2018-08-12T07:40:03.921Z,1010.54
2018-08-12T07:41:03.791Z,1010.55
2018-08-12T07:42:03.903Z,1010.56
2018-08-12T07:43:03.800Z,1010.52
2018-08-12T07:44:03.908Z,1010.57
2018-08-12T07:45:03.754Z,1010.59
2018-08-12T07:46:03.751Z,1010.56
2018-08-12T07:47:03.779Z,1010.53
2018-08-12T07:48:03.745Z,1010.53
2018-08-12T07:49:03.720Z,1010.47
2018-08-12T07:50:03.710Z,1010.44
2018-08-12T07:51:03.686Z,1010.43
2018-08-12T07:52:03.688Z,1010.48
2018-08-12T07:53:03.681Z,1010.44
2018-08-12T07:54:03.719Z,1010.43
2018-08-12T07:55:03.777Z,1010.43
2018-08-12T07:56:03.641Z,1010.38
2018-08-12T07:57:03.624Z,1010.38
2018-08-12T07:58:03.623Z,1010.40
2018-08-12T07:59:03.744Z,1010.37
2018-08-12T08:00:03.603Z,1010.37
2018-08-12T08:01:03.606Z,1010.38
2018-08-12T08:02:03.621Z,1010.38
2018-08-12T08:03:03.684Z,1010.32
2018-08-12T08:04:03.550Z,1010.35
2018-08-12T08:05:03.555Z,1010.34
2018-08-12T08:06:03.534Z,1010.32
2018-08-12T08:07:03.518Z,1010.35
2018-08-12T08:08:04.820Z,1010.29
2018-08-12T08:09:03.496Z,1010.30
2018-08-12T08:10:03.502Z,1010.30
2018-08-12T08:11:03.484Z,1010.30
2018-08-12T08:12:03.469Z,1010.28
2018-08-12T08:13:03.605Z,1010.30
2018-08-12T08:14:03.599Z,1010.27
2018-08-12T08:15:03.432Z,1010.25
2018-08-12T08:16:03.532Z,1010.23
2018-08-12T08:17:03.439Z,1010.27
2018-08-12T08:18:03.521Z,1010.18
2018-08-12T08:19:03.402Z,1010.27
2018-08-12T08:20:03.378Z,1010.27
2018-08-12T08:21:03.376Z,1010.22
2018-08-12T08:22:03.432Z,1010.28
2018-08-12T08:23:03.391Z,1010.26
2018-08-12T08:24:03.501Z,1010.23
2018-08-12T08:25:03.439Z,1010.22
2018-08-12T08:26:03.373Z,1010.23
2018-08-12T08:27:03.375Z,1010.20
2018-08-12T08:28:03.431Z,1010.19
2018-08-12T08:29:03.406Z,1010.20
2018-08-12T08:30:03.268Z,1010.22
2018-08-12T08:31:03.392Z,1010.20
2018-08-12T08:32:03.411Z,1010.20
2018-08-12T08:33:03.267Z,1010.19
2018-08-12T08:34:03.242Z,1010.19
2018-08-12T08:35:03.229Z,1010.14
2018-08-12T08:36:03.228Z,1010.17
2018-08-12T08:37:03.208Z,1010.11
2018-08-12T08:38:03.236Z,1010.11
2018-08-12T08:39:03.186Z,1010.13
2018-08-12T08:40:03.279Z,1010.07
2018-08-12T08:41:03.262Z,1010.11
2018-08-12T08:42:03.147Z,1010.07
2018-08-12T08:43:03.260Z,1010.06
2018-08-12T08:44:03.303Z,1010.04
2018-08-12T08:45:03.258Z,1010.04
2018-08-12T08:46:03.231Z,1010.01
2018-08-12T08:47:03.128Z,1010.02
2018-08-12T08:48:03.105Z,1010.03
2018-08-12T08:49:03.096Z,1009.98
2018-08-12T08:50:03.327Z,1010.01
2018-08-12T08:51:03.065Z,1010.00
2018-08-12T08:52:03.054Z,1009.99
2018-08-12T08:53:03.082Z,1010.02
2018-08-12T08:54:03.032Z,1010.01
2018-08-12T08:55:03.026Z,1009.99
2018-08-12T08:56:03.179Z,1009.94
2018-08-12T08:57:03.025Z,1009.93
2018-08-12T08:58:02.989Z,1009.95
2018-08-12T08:59:02.980Z,1009.93
2018-08-12T09:00:02.967Z,1009.90
2018-08-12T09:01:03.062Z,1009.93
2018-08-12T09:02:02.927Z,1009.89
2018-08-12T09:03:02.944Z,1009.93
2018-08-12T09:04:03.044Z,1009.93
2018-08-12T09:05:02.912Z,1009.94
2018-08-12T09:06:02.888Z,1009.96
2018-08-12T09:07:02.998Z,1009.91
2018-08-12T09:08:03.015Z,1009.90
2018-08-12T09:09:03.153Z,1009.88
2018-08-12T09:10:02.999Z,1009.85
2018-08-12T09:11:02.850Z,1009.87
2018-08-12T09:12:03.283Z,1009.84
2018-08-12T09:13:02.825Z,1009.80
2018-08-12T09:14:02.833Z,1009.77
2018-08-12T09:15:02.817Z,1009.78
2018-08-12T09:16:02.917Z,1009.78
2018-08-12T09:17:02.891Z,1009.78
2018-08-12T09:18:02.774Z,1009.79
2018-08-12T09:19:02.862Z,1009.76
2018-08-12T09:20:02.737Z,1009.79
2018-08-12T09:21:02.831Z,1009.75
2018-08-12T09:22:02.736Z,1009.75
2018-08-12T09:23:02.714Z,1009.77
2018-08-12T09:24:02.788Z,1009.77
2018-08-12T09:25:02.692Z,1009.79
2018-08-12T09:26:02.672Z,1009.74
2018-08-12T09:27:02.771Z,1009.70
2018-08-12T09:28:02.678Z,1009.67
2018-08-12T09:29:02.680Z,1009.70
2018-08-12T09:30:02.743Z,1009.63
2018-08-12T09:31:02.638Z,1009.58
2018-08-12T09:32:02.681Z,1009.59
2018-08-12T09:33:02.596Z,1009.55
2018-08-12T09:34:02.598Z,1009.60
2018-08-12T09:35:02.600Z,1009.59
2018-08-12T09:36:02.572Z,1009.59
2018-08-12T09:37:02.636Z,1009.60
2018-08-12T09:38:02.558Z,1009.59
2018-08-12T09:39:02.622Z,1009.54
2018-08-12T09:40:02.546Z,1009.52
2018-08-12T09:41:02.519Z,1009.49
2018-08-12T09:42:02.519Z,1009.51
2018-08-12T09:43:02.563Z,1009.54
2018-08-12T09:44:02.495Z,1009.51
2018-08-12T09:45:02.495Z,1009.50
2018-08-12T09:46:02.578Z,1009.48
2018-08-12T09:47:02.455Z,1009.46
2018-08-12T09:48:02.443Z,1009.47
2018-08-12T09:49:02.573Z,1009.43
2018-08-12T09:50:02.428Z,1009.48
2018-08-12T09:51:02.521Z,1009.45
2018-08-12T09:52:02.410Z,1009.40
2018-08-12T09:53:02.518Z,1009.39
2018-08-12T09:54:02.374Z,1009.34
2018-08-12T09:55:02.403Z,1009.37
2018-08-12T09:56:02.357Z,1009.34
2018-08-12T09:57:02.471Z,1009.33
2018-08-12T09:58:02.328Z,1009.33
2018-08-12T09:59:02.323Z,1009.31
2018-08-12T10:00:02.326Z,1009.31
2018-08-12T10:01:02.311Z,1009.35
2018-08-12T10:02:02.370Z,1009.35
2018-08-12T10:03:02.413Z,1009.35
2018-08-12T10:04:02.273Z,1009.30
2018-08-12T10:05:02.271Z,1009.26
2018-08-12T10:06:02.271Z,1009.28
2018-08-12T10:07:02.247Z,1009.29
2018-08-12T10:08:02.339Z,1009.26
2018-08-12T10:09:02.228Z,1009.21
2018-08-12T10:10:02.218Z,1009.18
2018-08-12T10:11:02.207Z,1009.21
2018-08-12T10:12:02.182Z,1009.22
2018-08-12T10:13:02.180Z,1009.20
2018-08-12T10:14:02.275Z,1009.18
2018-08-12T10:15:02.171Z,1009.15
2018-08-12T10:16:02.160Z,1009.15
2018-08-12T10:17:02.230Z,1009.13
2018-08-12T10:18:02.134Z,1009.14
2018-08-12T10:19:02.250Z,1009.07
2018-08-12T10:20:02.182Z,1009.07
2018-08-12T10:21:02.110Z,1009.08
2018-08-12T10:22:02.251Z,1009.07
2018-08-12T10:23:02.177Z,1008.95
2018-08-12T10:24:02.158Z,1008.98
2018-08-12T10:25:02.070Z,1008.95
2018-08-12T10:26:02.165Z,1008.93
2018-08-12T10:27:02.134Z,1008.94
2018-08-12T10:28:02.162Z,1008.96
2018-08-12T10:29:02.001Z,1008.98
2018-08-12T10:30:02.166Z,1008.92
2018-08-12T10:31:01.997Z,1008.88
2018-08-12T10:32:02.054Z,1008.90
2018-08-12T10:33:02.088Z,1008.88
2018-08-12T10:34:01.950Z,1008.90
2018-08-12T10:35:01.952Z,1008.87
2018-08-12T10:36:01.953Z,1008.90
2018-08-12T10:37:01.923Z,1008.88
2018-08-12T10:38:02.025Z,1008.89
2018-08-12T10:39:01.908Z,1008.86
2018-08-12T10:40:02.015Z,1008.82
2018-08-12T10:41:02.022Z,1008.82
2018-08-12T10:42:01.879Z,1008.80
2018-08-12T10:43:01.858Z,1008.76
2018-08-12T10:44:01.870Z,1008.73
2018-08-12T10:45:01.846Z,1008.71
2018-08-12T10:46:01.833Z,1008.75
2018-08-12T10:47:01.851Z,1008.75
2018-08-12T10:48:01.958Z,1008.77
2018-08-12T10:49:01.791Z,1008.77
2018-08-12T10:50:01.931Z,1008.73
2018-08-12T10:51:01.823Z,1008.74
2018-08-12T10:52:01.770Z,1008.74
2018-08-12T10:53:01.813Z,1008.73
2018-08-12T10:54:01.852Z,1008.74
2018-08-12T10:55:01.771Z,1008.76
2018-08-12T10:56:01.863Z,1008.78
2018-08-12T10:57:01.813Z,1008.73
2018-08-12T10:58:01.701Z,1008.69
2018-08-12T10:59:01.812Z,1008.69
2018-08-12T11:00:02.291Z,1008.67
2018-08-12T11:01:01.691Z,1008.64
2018-08-12T11:02:01.664Z,1008.65
2018-08-12T11:03:01.816Z,1008.63
2018-08-12T11:04:01.629Z,1008.61
2018-08-12T11:05:01.636Z,1008.64
2018-08-12T11:06:01.652Z,1008.62
2018-08-12T11:07:01.601Z,1008.61
2018-08-12T11:08:01.599Z,1008.64
2018-08-12T11:09:01.603Z,1008.61
2018-08-12T11:10:01.583Z,1008.58
2018-08-12T11:11:01.557Z,1008.57
2018-08-12T11:12:01.544Z,1008.54
2018-08-12T11:13:01.537Z,1008.50
2018-08-12T11:14:01.529Z,1008.50
2018-08-12T11:15:01.528Z,1008.46
2018-08-12T11:16:01.528Z,1008.45
2018-08-12T11:17:01.502Z,1008.44
2018-08-12T11:18:01.585Z,1008.49
2018-08-12T11:19:01.601Z,1008.44
2018-08-12T11:20:01.471Z,1008.43
2018-08-12T11:21:01.490Z,1008.43
2018-08-12T11:22:01.531Z,1008.38
2018-08-12T11:23:01.530Z,1008.35
2018-08-12T11:24:01.488Z,1008.29
2018-08-12T11:25:01.449Z,1008.33
2018-08-12T11:26:01.403Z,1008.33
2018-08-12T11:27:01.399Z,1008.29
2018-08-12T11:28:01.508Z,1008.28
2018-08-12T11:29:01.504Z,1008.25
2018-08-12T11:30:01.466Z,1008.24
2018-08-12T11:31:01.343Z,1008.20
2018-08-12T11:32:01.342Z,1008.26
2018-08-12T11:33:01.342Z,1008.18
2018-08-12T11:34:01.429Z,1008.20
2018-08-12T11:35:01.315Z,1008.16
2018-08-12T11:36:01.403Z,1008.20
2018-08-12T11:37:02.958Z,1008.21
2018-08-12T11:38:01.479Z,1008.11
2018-08-12T11:39:01.263Z,1008.06
2018-08-12T11:40:01.350Z,1008.07
2018-08-12T11:41:01.266Z,1008.01
2018-08-12T11:42:01.338Z,1008.04
2018-08-12T11:43:01.282Z,1007.98
2018-08-12T11:44:01.322Z,1008.00
2018-08-12T11:45:01.217Z,1008.00
2018-08-12T11:46:01.184Z,1007.99
2018-08-12T11:47:01.207Z,1007.99
2018-08-12T11:48:01.313Z,1007.92
2018-08-12T11:49:01.149Z,1007.88
2018-08-12T11:50:01.150Z,1007.88
2018-08-12T11:51:01.256Z,1007.89
2018-08-12T11:52:01.227Z,1007.97
2018-08-12T11:53:01.228Z,1007.90
2018-08-12T11:54:01.237Z,1007.85
2018-08-12T11:55:01.230Z,1007.86
2018-08-12T11:56:01.095Z,1007.80
2018-08-12T11:57:01.115Z,1007.74
2018-08-12T11:58:01.053Z,1007.74
2018-08-12T11:59:01.083Z,1007.77
2018-08-12T12:00:01.152Z,1007.74
2018-08-12T12:01:01.137Z,1007.73
2018-08-12T12:02:01.042Z,1007.71
2018-08-12T12:03:01.153Z,1007.70
2018-08-12T12:04:01.031Z,1007.67
2018-08-12T12:05:00.983Z,1007.66